Gran Canaria > ESTACION METEOROLÓGICA La Montañeta - Vega de San Mateo

DATOS ACTUALES Online

Ultima actulizacion 29 minutos

12.7 ºC

Temperatura

88

Humedad (%)

Presión (mb)

0

Precipitación (mm)

10.7 SW

Viento (Km/h)

DATOS DIARIOS

Temperatura últimas 24 horas (ºC)

Humedad últimas 24 horas (%)

Presión atmosférica últimas 24 horas (mb)

Precipitaciones últimas 23 horas (mm)

Viento últimas 24 horas (Km/h)

Hora Temperatura (°C) ºC Precipitación (mm) mm Presión (mb) mb Humedad (%) % Viento (Km/h) km/h
28 - 23:00 10.8 0 0 97 6.8 SO
29 - 00:00 10.9 0 0 98 6.9 S
29 - 01:00 10.7 0 0 97 10.2 S
29 - 02:00 11.1 0 0 96 7.1 SO
29 - 03:00 10.8 0 0 96 10.8 S
29 - 04:00 10.9 0 0 96 9.6 S
29 - 05:00 10.3 0 0 96 14.8 SO
29 - 06:00 10.5 0 0 95 8.8 SO
29 - 07:00 10.4 0 0 96 5.9 S
29 - 08:00 11.1 0 0 94 12.2 SO
29 - 09:00 12.3 0 0 87 8.4 S
29 - 10:00 15.4 0 0 76 12.9 NW
29 - 11:00 17.3 0 0 71 13.8 NW
29 - 12:00 18 0 0 67 20.2 NW
29 - 13:00 18.1 0 0 73 18.1 NW
29 - 14:00 16.9 0 0 78 15.9 NW
29 - 15:00 16 0 0 80 14.3 NW
29 - 16:00 17.2 0 0 76 17.1 NW
29 - 17:00 15.2 0 0 87 16.8 NW
29 - 18:00 14.2 0 0 91 12.6 W
29 - 19:00 13.6 0 0 89 13 W
29 - 20:00 13.1 0 0 88 14.3 W
29 - 21:00 12.7 0 0 92 9.1 W
29 - 22:00 12.6 0 0 90 12.1 W
29 - 23:00 12.7 0 0 88 10.7 SW
Apalmet utiliza cookies propias y de terceros para mejorar la usabilidad y la experiencia web. Política de cookies.